KPNE/PNE METAR and TAF weather

Enter ICAO airport designator
Station Type Date Time Source
KPNE METAR 2019/08/21 02:54 UTC NOAA

KPNE 210254Z 14004KT 10SM CLR 27/22 A3003 RMK AO2 SLP169 T02720222


Station Type Date Time Source
KPNE Decoded METAR 2019/08/21 02:54 UTC NOAA

Station name not available
Aug 20, 2019 - 10:54 PM EDT / 2019.08.21 0254 UTC
Wind: from the SE (140 degrees) at 5 MPH (4 KT):0
Visibility: 10 mile(s):0
Sky conditions: clear
Temperature: 81.0 F (27.2 C)
Dew Point: 72.0 F (22.2 C)
Relative Humidity: 74%
Pressure (altimeter): 30.03 in. Hg (1016 hPa)
Pressure tendency: 0.01 inches (0.3 hPa) higher than three hours ago
ob: KPNE 210254Z 14004KT 10SM CLR 27/22 A3003 RMK AO2 SLP169 T02720222 50003
cycle: 3

Station Type Date Time Source
KPNE TAF 2019/08/20 18:30 UTC NOAA

TAF KPNE 201729Z 2018/2118 13005KT P6SM SCT060
FM202000 14005KT P6SM VCTS BKN060CB
FM210300 VRB04KT P6SM BKN060 PROB30 2103/2108 4SM TSRA OVC025CB
FM210800 VRB02KT 5SM BR BKN050 PROB30 2108/2112 2SM -SHRA OVC015
FM211200 VRB03KT 5SM BR OVC050
FM211400 VRB04KT P6SM BKN060
FM211700 21009KT P6SM BKN090

Example: see airport list